createdAt,value
2023-04-25T00:01:57.577Z,8.60
2023-04-25T00:04:24.741Z,8.60
2023-04-25T00:06:53.261Z,8.60
2023-04-25T00:09:20.317Z,8.60
2023-04-25T00:11:47.091Z,8.50
2023-04-25T00:14:13.923Z,8.50
2023-04-25T00:16:42.290Z,8.50
2023-04-25T00:19:10.608Z,8.50
2023-04-25T00:21:41.670Z,8.50
2023-04-25T00:24:09.061Z,8.60
2023-04-25T00:26:37.072Z,8.60
2023-04-25T00:29:04.043Z,8.70
2023-04-25T00:31:31.210Z,8.70
2023-04-25T00:33:58.102Z,8.70
2023-04-25T00:36:24.832Z,8.60
2023-04-25T00:38:51.688Z,8.60
2023-04-25T00:41:19.248Z,8.60
2023-04-25T00:43:47.188Z,8.50
2023-04-25T00:46:14.420Z,8.50
2023-04-25T00:48:41.264Z,8.40
2023-04-25T00:51:08.075Z,8.30
2023-04-25T00:53:34.945Z,8.30
2023-04-25T00:56:01.808Z,8.40
2023-04-25T00:58:28.636Z,8.40
2023-04-25T01:00:57.099Z,8.40
2023-04-25T01:03:24.194Z,8.40
2023-04-25T01:05:51.956Z,8.40
2023-04-25T01:08:18.737Z,8.40
2023-04-25T01:10:45.441Z,8.40
2023-04-25T01:13:12.299Z,8.30
2023-04-25T01:15:39.199Z,8.30
2023-04-25T01:18:06.952Z,8.30
2023-04-25T01:20:34.668Z,8.30
2023-04-25T01:23:04.081Z,8.30
2023-04-25T01:25:33.837Z,8.40
2023-04-25T01:28:01.044Z,8.40
2023-04-25T01:30:28.733Z,8.40
2023-04-25T01:32:57.667Z,8.40
2023-04-25T01:35:25.974Z,8.50
2023-04-25T01:37:53.249Z,8.40
2023-04-25T01:40:23.445Z,8.40
2023-04-25T01:42:50.513Z,8.40
2023-04-25T01:45:17.860Z,8.40
2023-04-25T01:47:47.988Z,8.30
2023-04-25T01:50:14.918Z,8.30
2023-04-25T01:52:41.684Z,8.20
2023-04-25T01:55:08.859Z,8.20
2023-04-25T01:57:35.787Z,8.10
2023-04-25T02:00:05.970Z,8.10
2023-04-25T02:02:32.782Z,8.00
2023-04-25T02:04:59.606Z,8.00
2023-04-25T02:07:27.629Z,8.10
2023-04-25T02:09:54.392Z,8.10
2023-04-25T02:12:21.178Z,8.10
2023-04-25T02:14:47.993Z,8.10
2023-04-25T02:17:14.866Z,8.00
2023-04-25T02:19:41.736Z,8.10
2023-04-25T02:22:08.494Z,8.00
2023-04-25T02:24:35.911Z,8.00
2023-04-25T02:27:02.841Z,8.10
2023-04-25T02:29:30.660Z,8.10
2023-04-25T02:31:57.484Z,8.10
2023-04-25T02:34:24.397Z,8.20
2023-04-25T02:36:51.995Z,8.20
2023-04-25T02:39:19.112Z,8.20
2023-04-25T02:41:46.078Z,8.30
2023-04-25T02:44:12.870Z,8.30
2023-04-25T02:46:40.051Z,8.30
2023-04-25T02:49:07.725Z,8.30
2023-04-25T02:51:34.712Z,8.40
2023-04-25T02:54:01.511Z,8.50
2023-04-25T02:56:28.485Z,8.50
2023-04-25T02:58:55.321Z,8.60
2023-04-25T03:01:22.226Z,8.70
2023-04-25T03:03:49.308Z,8.70
2023-04-25T03:06:17.014Z,8.70
2023-04-25T03:08:44.056Z,8.80
2023-04-25T03:11:11.517Z,8.90
2023-04-25T03:13:38.345Z,8.90
2023-04-25T03:16:05.554Z,8.90
2023-04-25T03:18:32.630Z,8.90
2023-04-25T03:20:59.637Z,9.00
2023-04-25T03:23:27.069Z,9.00
2023-04-25T03:25:53.790Z,8.90
2023-04-25T03:28:21.003Z,9.00
2023-04-25T03:30:47.738Z,9.00
2023-04-25T03:33:14.568Z,9.00
2023-04-25T03:35:41.352Z,9.00
2023-04-25T03:38:08.114Z,9.10
2023-04-25T03:40:35.209Z,9.10
2023-04-25T03:43:01.914Z,9.10
2023-04-25T03:45:28.710Z,9.20
2023-04-25T03:47:55.509Z,9.20
2023-04-25T03:50:22.264Z,9.20
2023-04-25T03:52:48.981Z,9.30
2023-04-25T03:55:15.762Z,9.30
2023-04-25T03:57:42.482Z,9.30
2023-04-25T04:00:10.298Z,9.30
2023-04-25T04:02:38.646Z,9.20
2023-04-25T04:05:07.037Z,9.20
2023-04-25T04:07:34.424Z,9.10
2023-04-25T04:10:01.172Z,9.20
2023-04-25T04:12:27.885Z,9.20
2023-04-25T04:14:54.634Z,9.20
2023-04-25T04:17:21.557Z,9.20
2023-04-25T04:19:48.297Z,9.20
2023-04-25T04:22:15.261Z,9.20
2023-04-25T04:24:44.907Z,9.20
2023-04-25T04:27:13.705Z,9.20
2023-04-25T04:29:40.611Z,9.20
2023-04-25T04:32:09.685Z,9.20
2023-04-25T04:34:36.692Z,9.30
2023-04-25T04:37:03.672Z,9.30
2023-04-25T04:39:30.549Z,9.30
2023-04-25T04:41:57.684Z,9.40
2023-04-25T04:44:24.489Z,9.30
2023-04-25T04:46:51.568Z,9.40
2023-04-25T04:49:18.831Z,9.40
2023-04-25T04:51:45.726Z,9.40
2023-04-25T04:54:12.569Z,9.30
2023-04-25T04:56:39.434Z,9.20
2023-04-25T04:59:06.287Z,9.20
2023-04-25T05:01:33.130Z,9.30
2023-04-25T05:04:02.001Z,9.30
2023-04-25T05:06:32.234Z,9.40
2023-04-25T05:08:59.339Z,9.40
2023-04-25T05:11:26.341Z,9.40
2023-04-25T05:13:54.105Z,9.40
2023-04-25T05:16:21.434Z,9.40
2023-04-25T05:18:49.929Z,9.40
2023-04-25T05:21:17.367Z,9.40
2023-04-25T05:23:44.091Z,9.40
2023-04-25T05:26:14.786Z,9.30
2023-04-25T05:28:42.839Z,9.20
2023-04-25T05:31:11.364Z,9.10
2023-04-25T05:33:38.197Z,9.10
2023-04-25T05:36:05.338Z,9.00
2023-04-25T05:38:34.671Z,9.00
2023-04-25T05:41:01.939Z,8.90
2023-04-25T05:43:28.780Z,8.90
2023-04-25T05:45:55.800Z,8.90
2023-04-25T05:48:22.814Z,9.00
2023-04-25T05:50:49.635Z,9.10
2023-04-25T05:53:16.456Z,9.20
2023-04-25T05:55:43.220Z,9.20
2023-04-25T05:58:10.080Z,9.20
2023-04-25T06:00:37.050Z,9.30
2023-04-25T06:03:04.564Z,9.50
2023-04-25T06:05:31.615Z,9.60
2023-04-25T06:07:58.547Z,9.70
2023-04-25T06:10:25.450Z,9.90
2023-04-25T06:12:52.244Z,10.10
2023-04-25T06:15:28.241Z,10.40
2023-04-25T06:17:56.276Z,10.50
2023-04-25T06:20:25.051Z,10.50
2023-04-25T06:22:52.914Z,10.30
2023-04-25T06:25:19.972Z,10.20
2023-04-25T06:27:46.729Z,10.40
2023-04-25T06:30:13.631Z,10.50
2023-04-25T06:32:40.731Z,10.70
2023-04-25T06:35:07.909Z,11.10
2023-04-25T06:37:34.685Z,11.30
2023-04-25T06:40:01.432Z,11.60
2023-04-25T06:42:28.191Z,11.80
2023-04-25T06:44:54.930Z,11.80
2023-04-25T06:47:22.766Z,11.80
2023-04-25T06:49:50.378Z,11.80
2023-04-25T06:52:18.951Z,11.40
2023-04-25T06:54:46.284Z,11.30
2023-04-25T06:57:13.286Z,11.20
2023-04-25T06:59:40.204Z,11.10
2023-04-25T07:02:07.229Z,11.10
2023-04-25T07:04:34.148Z,11.10
2023-04-25T07:07:03.637Z,11.20
2023-04-25T07:09:30.931Z,11.20
2023-04-25T07:11:57.736Z,11.30
2023-04-25T07:14:25.054Z,11.40
2023-04-25T07:16:51.940Z,11.50
2023-04-25T07:19:18.720Z,11.40
2023-04-25T07:21:45.569Z,11.60
2023-04-25T07:24:12.396Z,11.70
2023-04-25T07:26:39.190Z,11.80
2023-04-25T07:29:06.021Z,12.00
2023-04-25T07:31:32.813Z,12.40
2023-04-25T07:34:01.880Z,12.60
2023-04-25T07:36:29.016Z,13.00
2023-04-25T07:38:55.845Z,13.30
2023-04-25T07:41:22.677Z,13.70
2023-04-25T07:43:49.760Z,14.00
2023-04-25T07:46:16.863Z,14.30
2023-04-25T07:48:43.729Z,14.60
2023-04-25T07:51:10.470Z,14.80
2023-04-25T07:53:38.646Z,15.00
2023-04-25T07:56:07.026Z,14.90
2023-04-25T07:58:33.833Z,14.90
2023-04-25T08:01:00.752Z,14.70
2023-04-25T08:03:27.871Z,14.70
2023-04-25T08:05:55.218Z,14.90
2023-04-25T08:08:22.246Z,15.20
2023-04-25T08:10:49.411Z,15.50
2023-04-25T08:13:16.479Z,15.70
2023-04-25T08:15:43.250Z,15.80
2023-04-25T08:18:10.139Z,15.90
2023-04-25T08:20:36.900Z,15.80
2023-04-25T08:23:03.652Z,16.00
2023-04-25T08:25:30.385Z,16.30
2023-04-25T08:27:58.218Z,16.70
2023-04-25T08:30:25.194Z,17.10
2023-04-25T08:32:52.340Z,17.40
2023-04-25T08:35:19.320Z,17.70
2023-04-25T08:37:46.384Z,18.00
2023-04-25T08:40:16.211Z,17.90
2023-04-25T08:42:43.811Z,17.80
2023-04-25T08:45:11.666Z,17.40
2023-04-25T08:47:40.657Z,17.20
2023-04-25T08:50:08.044Z,16.70
2023-04-25T08:52:45.089Z,16.60
2023-04-25T08:55:14.141Z,16.80
2023-04-25T08:57:46.248Z,16.90
2023-04-25T09:00:14.115Z,16.80
2023-04-25T09:02:42.605Z,16.50
2023-04-25T09:05:24.303Z,16.30
2023-04-25T09:07:51.205Z,16.10
2023-04-25T09:10:18.064Z,15.90
2023-04-25T09:12:44.936Z,15.70
2023-04-25T09:15:20.368Z,15.40
2023-04-25T09:17:57.223Z,15.00
2023-04-25T09:20:24.076Z,14.80
2023-04-25T09:22:50.848Z,14.60
2023-04-25T09:25:18.106Z,14.60
2023-04-25T09:27:55.413Z,14.40
2023-04-25T09:30:31.407Z,14.40
2023-04-25T09:33:04.928Z,14.40
2023-04-25T09:35:40.767Z,14.30
2023-04-25T09:38:14.953Z,14.60
2023-04-25T09:40:46.441Z,14.50
2023-04-25T09:43:24.397Z,14.60
2023-04-25T09:45:54.255Z,14.30
2023-04-25T09:48:23.156Z,14.30
2023-04-25T09:51:09.769Z,14.20
2023-04-25T09:53:41.876Z,14.10
2023-04-25T09:56:10.696Z,13.90
2023-04-25T09:58:39.510Z,13.70
2023-04-25T10:01:08.807Z,13.20
2023-04-25T10:03:40.671Z,12.80
2023-04-25T10:06:15.411Z,12.40
2023-04-25T10:08:44.208Z,12.00
2023-04-25T10:11:11.462Z,11.70
2023-04-25T10:13:38.296Z,11.50
2023-04-25T10:16:06.072Z,11.30
2023-04-25T10:18:33.858Z,11.00
2023-04-25T10:21:06.052Z,10.80
2023-04-25T10:23:35.696Z,10.80
2023-04-25T10:26:02.918Z,10.80
2023-04-25T10:28:29.956Z,10.80
2023-04-25T10:31:05.696Z,11.00
2023-04-25T10:33:40.954Z,11.10
2023-04-25T10:36:15.966Z,11.20
2023-04-25T10:38:47.016Z,11.40
2023-04-25T10:41:14.959Z,11.70
2023-04-25T10:43:46.000Z,12.00
2023-04-25T10:46:28.315Z,12.30
2023-04-25T10:49:00.011Z,12.50
2023-04-25T10:51:43.407Z,12.50
2023-04-25T10:54:19.050Z,12.70
2023-04-25T10:56:45.800Z,12.70
2023-04-25T10:59:17.921Z,12.90
2023-04-25T11:01:46.955Z,12.80
2023-04-25T11:04:31.316Z,12.90
2023-04-25T11:07:07.013Z,12.90
2023-04-25T11:09:35.586Z,13.20
2023-04-25T11:12:02.652Z,13.00
2023-04-25T11:14:29.446Z,13.10
2023-04-25T11:16:58.885Z,13.20
2023-04-25T11:19:27.832Z,13.30
2023-04-25T11:22:01.961Z,13.50
2023-04-25T11:24:29.906Z,13.40
2023-04-25T11:26:57.523Z,13.30
2023-04-25T11:29:27.410Z,13.30
2023-04-25T11:31:58.992Z,13.20
2023-04-25T11:34:27.032Z,13.20
2023-04-25T11:36:54.606Z,13.10
2023-04-25T11:39:21.746Z,12.50
2023-04-25T11:41:48.957Z,11.90
2023-04-25T11:44:20.247Z,11.40
2023-04-25T11:46:47.555Z,11.20
2023-04-25T11:49:15.673Z,10.90
2023-04-25T11:51:44.296Z,10.50
2023-04-25T11:54:12.770Z,10.20
2023-04-25T11:56:46.273Z,10.00
2023-04-25T11:59:14.009Z,9.70
2023-04-25T12:01:48.999Z,9.70
2023-04-25T12:04:23.697Z,9.80
2023-04-25T12:06:54.744Z,9.80
2023-04-25T12:09:29.313Z,9.70
2023-04-25T12:11:57.612Z,9.60
2023-04-25T12:14:26.048Z,9.60
2023-04-25T12:16:52.839Z,9.50
2023-04-25T12:19:21.276Z,9.50
2023-04-25T12:21:57.955Z,9.30
2023-04-25T12:24:27.044Z,9.30
2023-04-25T12:27:03.999Z,9.30
2023-04-25T12:29:38.522Z,9.30
2023-04-25T12:32:15.058Z,9.10
2023-04-25T12:34:41.871Z,9.00
2023-04-25T12:37:08.686Z,9.00
2023-04-25T12:39:35.598Z,8.90
2023-04-25T12:42:02.394Z,8.80
2023-04-25T12:44:29.081Z,8.70
2023-04-25T12:46:56.243Z,8.70
2023-04-25T12:49:23.488Z,8.70
2023-04-25T12:51:50.526Z,8.80
2023-04-25T12:54:17.238Z,8.90
2023-04-25T12:56:44.028Z,8.90
2023-04-25T12:59:10.919Z,8.90
2023-04-25T13:01:38.776Z,8.80
2023-04-25T13:04:05.800Z,8.70
2023-04-25T13:06:33.056Z,8.60
2023-04-25T13:09:16.975Z,8.70
2023-04-25T13:11:43.789Z,8.70
2023-04-25T13:14:10.798Z,8.70
2023-04-25T13:16:37.746Z,8.90
2023-04-25T13:19:04.507Z,8.90
2023-04-25T13:21:34.856Z,8.90
2023-04-25T13:24:01.717Z,9.10
2023-04-25T13:26:28.539Z,9.30
2023-04-25T13:28:55.274Z,9.40
2023-04-25T13:31:22.329Z,9.40
2023-04-25T13:33:49.777Z,9.40
2023-04-25T13:36:16.951Z,9.60
2023-04-25T13:38:45.070Z,9.80
2023-04-25T13:41:16.671Z,10.00
2023-04-25T13:43:43.457Z,10.10
2023-04-25T13:46:24.776Z,10.20
2023-04-25T13:49:06.157Z,10.20
2023-04-25T13:51:33.425Z,10.10
2023-04-25T13:54:00.196Z,10.00
2023-04-25T13:56:27.685Z,10.10
2023-04-25T13:58:54.460Z,10.10
2023-04-25T14:01:22.238Z,10.00
2023-04-25T14:03:49.390Z,10.00
2023-04-25T14:06:22.206Z,10.00
2023-04-25T14:08:49.106Z,9.90
2023-04-25T14:11:16.050Z,9.80
2023-04-25T14:13:42.741Z,9.70
2023-04-25T14:16:09.568Z,9.60
2023-04-25T14:18:36.595Z,9.50
2023-04-25T14:21:03.479Z,9.40
2023-04-25T14:23:30.662Z,9.40
2023-04-25T14:25:57.657Z,9.40
2023-04-25T14:28:24.443Z,9.40
2023-04-25T14:30:51.261Z,9.40
2023-04-25T14:33:18.033Z,9.40
2023-04-25T14:35:44.933Z,9.30
2023-04-25T14:38:11.723Z,9.40
2023-04-25T14:40:39.130Z,9.40
2023-04-25T14:43:05.844Z,9.50
2023-04-25T14:45:34.560Z,9.60
2023-04-25T14:48:01.690Z,9.60
2023-04-25T14:50:28.564Z,9.70
2023-04-25T14:52:59.652Z,9.90
2023-04-25T14:55:26.385Z,10.10
2023-04-25T14:57:57.808Z,10.30
2023-04-25T15:00:26.207Z,10.30
2023-04-25T15:02:53.068Z,10.30
2023-04-25T15:05:21.053Z,10.20
2023-04-25T15:07:48.894Z,10.10
2023-04-25T15:10:17.048Z,10.00
2023-04-25T15:12:46.922Z,9.90
2023-04-25T15:15:22.639Z,9.90
2023-04-25T15:17:52.576Z,9.80
2023-04-25T15:20:19.575Z,9.80
2023-04-25T15:22:46.997Z,9.80
2023-04-25T15:25:13.700Z,9.80
2023-04-25T15:27:42.807Z,9.90
2023-04-25T15:30:12.150Z,9.90
2023-04-25T15:32:39.207Z,10.10
2023-04-25T15:35:07.425Z,10.30
2023-04-25T15:37:34.870Z,10.40
2023-04-25T15:40:09.892Z,10.40
2023-04-25T15:42:37.597Z,10.40
2023-04-25T15:45:09.343Z,10.50
2023-04-25T15:47:36.841Z,10.60
2023-04-25T15:50:06.471Z,10.70
2023-04-25T15:52:33.727Z,10.90
2023-04-25T15:55:01.464Z,10.80
2023-04-25T15:57:28.340Z,10.90
2023-04-25T15:59:55.057Z,10.90
2023-04-25T16:02:21.913Z,10.90
2023-04-25T16:04:49.118Z,11.10
2023-04-25T16:07:16.366Z,11.20
2023-04-25T16:09:43.146Z,11.20
2023-04-25T16:12:10.955Z,11.20
2023-04-25T16:14:37.761Z,11.10
2023-04-25T16:17:04.475Z,11.10
2023-04-25T16:19:31.477Z,11.10
2023-04-25T16:21:58.343Z,11.20
2023-04-25T16:24:25.086Z,11.10
2023-04-25T16:26:52.393Z,11.00
2023-04-25T16:29:19.145Z,11.00
2023-04-25T16:31:47.456Z,10.80
2023-04-25T16:34:15.411Z,10.30
2023-04-25T16:36:42.299Z,10.00
2023-04-25T16:39:09.702Z,9.50
2023-04-25T16:41:36.869Z,9.20
2023-04-25T16:44:03.716Z,8.90
2023-04-25T16:46:30.471Z,8.70
2023-04-25T16:48:57.301Z,8.70
2023-04-25T16:51:24.109Z,8.80
2023-04-25T16:53:50.899Z,8.80
2023-04-25T16:56:17.681Z,8.90
2023-04-25T16:58:44.504Z,8.90
2023-04-25T17:01:11.792Z,9.00
2023-04-25T17:03:38.821Z,9.00
2023-04-25T17:06:06.118Z,9.00
2023-04-25T17:08:32.819Z,9.00
2023-04-25T17:10:59.988Z,9.00
2023-04-25T17:13:30.822Z,8.90
2023-04-25T17:15:58.999Z,8.90
2023-04-25T17:18:26.188Z,8.90
2023-04-25T17:20:53.059Z,9.00
2023-04-25T17:23:19.908Z,9.00
2023-04-25T17:25:46.798Z,9.10
2023-04-25T17:28:13.929Z,9.10
2023-04-25T17:30:42.352Z,9.10
2023-04-25T17:33:16.523Z,9.10
2023-04-25T17:35:43.226Z,9.20
2023-04-25T17:38:10.121Z,9.20
2023-04-25T17:40:36.942Z,9.20
2023-04-25T17:43:03.731Z,9.20
2023-04-25T17:45:34.606Z,9.20
2023-04-25T17:48:02.193Z,9.20
2023-04-25T17:50:29.104Z,9.20
2023-04-25T17:52:55.990Z,9.10
2023-04-25T17:55:23.714Z,9.10
2023-04-25T17:57:50.588Z,9.10
2023-04-25T18:00:18.586Z,9.10
2023-04-25T18:02:47.464Z,9.10
2023-04-25T18:05:15.713Z,9.00
2023-04-25T18:07:42.762Z,9.00
2023-04-25T18:10:11.732Z,9.00
2023-04-25T18:12:38.530Z,9.00
2023-04-25T18:15:06.958Z,9.00
2023-04-25T18:17:40.522Z,9.00
2023-04-25T18:20:15.043Z,8.90
2023-04-25T18:22:43.045Z,8.90
2023-04-25T18:25:11.174Z,9.00
2023-04-25T18:27:38.809Z,9.00
2023-04-25T18:30:09.054Z,9.00
2023-04-25T18:32:35.897Z,9.00
2023-04-25T18:35:03.347Z,9.00
2023-04-25T18:37:30.151Z,9.00
2023-04-25T18:39:56.899Z,8.90
2023-04-25T18:42:23.672Z,8.90
2023-04-25T18:44:51.110Z,8.90
2023-04-25T18:47:17.928Z,8.90
2023-04-25T18:49:45.654Z,8.80
2023-04-25T18:52:15.080Z,8.80
2023-04-25T18:54:42.511Z,8.70
2023-04-25T18:57:09.499Z,8.70
2023-04-25T18:59:36.433Z,8.70
2023-04-25T19:02:05.327Z,8.70
2023-04-25T19:04:32.682Z,8.60
2023-04-25T19:06:59.724Z,8.70
2023-04-25T19:09:26.527Z,8.70
2023-04-25T19:11:53.352Z,8.70
2023-04-25T19:14:20.094Z,8.70
2023-04-25T19:16:46.961Z,8.60
2023-04-25T19:19:13.804Z,8.60
2023-04-25T19:21:41.634Z,8.60
2023-04-25T19:24:08.834Z,8.60
2023-04-25T19:26:35.715Z,8.60
2023-04-25T19:29:15.421Z,8.60
2023-04-25T19:31:44.919Z,8.70
2023-04-25T19:34:13.113Z,8.80
2023-04-25T19:36:42.355Z,8.90
2023-04-25T19:39:09.554Z,8.80
2023-04-25T19:41:38.249Z,8.90
2023-04-25T19:44:07.446Z,8.90
2023-04-25T19:46:35.337Z,8.80
2023-04-25T19:49:03.187Z,8.90
2023-04-25T19:51:32.016Z,8.90
2023-04-25T19:53:58.718Z,8.90
2023-04-25T19:56:26.356Z,8.90
2023-04-25T19:58:53.500Z,8.80
2023-04-25T20:01:22.475Z,8.80
2023-04-25T20:03:51.797Z,8.80
2023-04-25T20:06:19.316Z,8.70
2023-04-25T20:08:47.231Z,8.80
2023-04-25T20:11:14.929Z,8.70
2023-04-25T20:13:42.026Z,8.70
2023-04-25T20:16:08.915Z,8.70
2023-04-25T20:18:35.735Z,8.70
2023-04-25T20:21:02.738Z,8.70
2023-04-25T20:23:29.567Z,8.70
2023-04-25T20:25:56.386Z,8.70
2023-04-25T20:28:23.359Z,8.60
2023-04-25T20:30:50.739Z,8.60
2023-04-25T20:33:17.657Z,8.60
2023-04-25T20:35:44.521Z,8.50
2023-04-25T20:38:12.131Z,8.50
2023-04-25T20:40:38.932Z,8.50
2023-04-25T20:43:05.747Z,8.50
2023-04-25T20:45:34.502Z,8.50
2023-04-25T20:48:02.547Z,8.50
2023-04-25T20:50:29.561Z,8.60
2023-04-25T20:52:57.269Z,8.60
2023-04-25T20:55:24.292Z,8.50
2023-04-25T20:57:51.083Z,8.50
2023-04-25T21:00:28.935Z,8.50
2023-04-25T21:02:57.429Z,8.40
2023-04-25T21:05:24.847Z,8.40
2023-04-25T21:07:55.184Z,8.40
2023-04-25T21:10:22.034Z,8.40
2023-04-25T21:12:49.895Z,8.20
2023-04-25T21:15:19.395Z,8.10
2023-04-25T21:17:50.590Z,8.10
2023-04-25T21:20:19.009Z,8.20
2023-04-25T21:22:51.124Z,8.30
2023-04-25T21:25:28.992Z,8.30
2023-04-25T21:27:56.265Z,8.30
2023-04-25T21:30:24.435Z,8.20
2023-04-25T21:32:52.242Z,8.10
2023-04-25T21:35:20.725Z,8.10
2023-04-25T21:37:47.494Z,8.10
2023-04-25T21:40:15.146Z,8.10
2023-04-25T21:42:42.535Z,8.10
2023-04-25T21:45:10.118Z,8.00
2023-04-25T21:47:37.090Z,8.00
2023-04-25T21:50:04.709Z,7.90
2023-04-25T21:52:32.002Z,7.90
2023-04-25T21:54:58.825Z,7.90
2023-04-25T21:57:25.625Z,7.90
2023-04-25T21:59:52.417Z,7.90
2023-04-25T22:02:19.446Z,7.90
2023-04-25T22:04:47.648Z,7.90
2023-04-25T22:07:15.133Z,7.90
2023-04-25T22:09:53.809Z,7.80
2023-04-25T22:12:20.957Z,7.90
2023-04-25T22:14:48.914Z,7.90
2023-04-25T22:17:15.703Z,7.90
2023-04-25T22:19:43.226Z,7.90
2023-04-25T22:22:10.066Z,7.90
2023-04-25T22:24:36.910Z,7.90
2023-04-25T22:27:03.846Z,7.90
2023-04-25T22:29:30.700Z,8.00
2023-04-25T22:31:58.436Z,8.00
2023-04-25T22:34:25.230Z,8.10
2023-04-25T22:36:51.985Z,8.10
2023-04-25T22:39:19.354Z,8.10
2023-04-25T22:41:46.549Z,8.10
2023-04-25T22:44:13.581Z,8.10
2023-04-25T22:46:40.370Z,8.10
2023-04-25T22:49:07.101Z,8.10
2023-04-25T22:51:34.322Z,8.10
2023-04-25T22:54:01.548Z,8.10
2023-04-25T22:56:32.657Z,8.20
2023-04-25T22:58:59.471Z,8.20
2023-04-25T23:01:27.931Z,8.10
2023-04-25T23:03:55.036Z,8.20
2023-04-25T23:06:21.914Z,8.30
2023-04-25T23:08:48.726Z,8.30
2023-04-25T23:11:15.660Z,8.30
2023-04-25T23:13:42.426Z,8.40
2023-04-25T23:16:10.736Z,8.40
2023-04-25T23:18:39.225Z,8.50
2023-04-25T23:21:11.424Z,8.40
2023-04-25T23:23:38.794Z,8.40
2023-04-25T23:26:09.841Z,8.30
2023-04-25T23:28:42.015Z,8.30
2023-04-25T23:31:10.340Z,8.30
2023-04-25T23:33:37.363Z,8.20
2023-04-25T23:36:04.544Z,8.30
2023-04-25T23:38:32.210Z,8.30
2023-04-25T23:40:58.893Z,8.30
2023-04-25T23:43:25.660Z,8.30
2023-04-25T23:45:54.109Z,8.30
2023-04-25T23:48:20.987Z,8.20
2023-04-25T23:50:47.705Z,8.20
2023-04-25T23:53:14.477Z,8.30
2023-04-25T23:55:41.639Z,8.30
2023-04-25T23:58:08.427Z,8.30
